Time;durP1;ratioP1;P1;durP2;ratioP2;P2;SDS_P1;SDS_P2;PMS_P1;PMS_P2;Temp;Humidity;BMP_temperature;BMP_pressure;BME280_temperature;BME280_humidity;BME280_pressure;Samples;Min_cycle;Max_cycle;Signal;HPM_P1;HPM_P2
2023/08/01 00:01:57;;;;;;;5.75;2.13;;;;;;;18.86;100.00;99349.69;5024929;28;20566;-51
2023/08/01 00:04:22;;;;;;;6.90;2.05;;;;;;;18.94;100.00;99341.06;5021244;28;20751;-56
2023/08/01 00:06:47;;;;;;;7.25;2.05;;;;;;;18.88;100.00;99344.84;5022230;28;20087;-53
2023/08/01 00:09:13;;;;;;;4.82;1.70;;;;;;;18.70;100.00;99346.19;5022754;28;20463;-56
2023/08/01 00:11:39;;;;;;;11.77;3.13;;;;;;;18.70;100.00;99353.47;5021186;28;20033;-54
2023/08/01 00:14:05;;;;;;;11.27;1.90;;;;;;;18.62;100.00;99351.34;5020447;28;20033;-50
2023/08/01 00:16:32;;;;;;;13.68;3.53;;;;;;;18.59;100.00;99350.00;5019880;28;20394;-52
2023/08/01 00:18:57;;;;;;;7.35;1.90;;;;;;;18.50;100.00;99344.34;5017205;28;20064;-51
2023/08/01 00:21:23;;;;;;;6.60;1.48;;;;;;;18.44;100.00;99345.44;5022299;28;20113;-54
2023/08/01 00:23:48;;;;;;;8.02;1.88;;;;;;;18.46;100.00;99348.66;5020942;28;20029;-53
2023/08/01 00:26:13;;;;;;;8.77;1.85;;;;;;;18.46;100.00;99351.34;5022260;28;20044;-60
2023/08/01 00:28:39;;;;;;;4.78;1.70;;;;;;;18.50;100.00;99360.47;5022751;28;20480;-54
2023/08/01 00:31:11;;;;;;;4.13;1.40;;;;;;;18.61;100.00;99347.03;5018381;28;20033;-54
2023/08/01 00:33:37;;;;;;;7.13;2.80;;;;;;;18.63;100.00;99347.56;5020437;28;20662;-54
2023/08/01 00:36:02;;;;;;;9.60;2.58;;;;;;;18.50;100.00;99343.56;5022631;28;20033;-51
2023/08/01 00:38:28;;;;;;;9.57;2.33;;;;;;;18.40;100.00;99354.31;5021162;28;20531;-53
2023/08/01 00:40:53;;;;;;;7.22;2.38;;;;;;;18.36;100.00;99347.88;5018332;28;20037;-52
2023/08/01 00:43:19;;;;;;;7.95;2.17;;;;;;;18.29;100.00;99348.13;5018691;28;20056;-53
2023/08/01 00:45:46;;;;;;;3.22;1.92;;;;;;;18.22;100.00;99345.72;5024392;28;20435;-52
2023/08/01 00:48:11;;;;;;;6.78;2.88;;;;;;;18.07;100.00;99351.91;5025639;28;20028;-52
2023/08/01 00:50:39;;;;;;;7.30;1.55;;;;;;;18.01;100.00;99357.53;5015115;28;20033;-59
2023/08/01 00:53:05;;;;;;;11.02;2.05;;;;;;;17.98;100.00;99353.50;5019470;28;20074;-54
2023/08/01 00:55:32;;;;;;;12.38;2.15;;;;;;;18.04;100.00;99354.31;5026009;28;20030;-54
2023/08/01 00:57:57;;;;;;;6.03;1.77;;;;;;;18.25;100.00;99355.94;5021069;28;20426;-53
2023/08/01 01:00:23;;;;;;;10.60;2.28;;;;;;;18.31;100.00;99352.16;5017359;28;20029;-54
2023/08/01 01:02:48;;;;;;;5.10;2.60;;;;;;;18.24;100.00;99356.19;5020477;28;20046;-52
2023/08/01 01:05:15;;;;;;;4.50;2.53;;;;;;;18.22;100.00;99358.34;5019436;28;20037;-52
2023/08/01 01:07:41;;;;;;;6.30;2.28;;;;;;;18.26;100.00;99359.41;5021857;28;20446;-53
2023/08/01 01:10:07;;;;;;;8.13;2.10;;;;;;;18.39;100.00;99353.50;5022485;28;20423;-54
2023/08/01 01:12:32;;;;;;;12.60;3.13;;;;;;;18.38;100.00;99359.13;5022395;28;20091;-52
2023/08/01 01:14:57;;;;;;;9.13;2.63;;;;;;;18.36;100.00;99362.09;5018337;28;20041;-54
2023/08/01 01:17:22;;;;;;;5.32;2.17;;;;;;;18.31;100.00;99367.47;5017983;28;21962;-55
2023/08/01 01:19:48;;;;;;;4.05;2.17;;;;;;;18.21;100.00;99362.09;5019895;28;20069;-51
2023/08/01 01:22:15;;;;;;;5.45;1.67;;;;;;;18.19;100.00;99367.72;5020773;28;20109;-56
2023/08/01 01:24:42;;;;;;;5.75;1.95;;;;;;;18.19;100.00;99373.09;5010532;28;20029;-56
2023/08/01 01:27:08;;;;;;;7.20;3.33;;;;;;;18.15;100.00;99371.19;5017776;28;20042;-55
2023/08/01 01:29:34;;;;;;;7.75;2.28;;;;;;;18.15;100.00;99374.72;5023920;28;20186;-53
2023/08/01 01:32:00;;;;;;;8.15;2.10;;;;;;;18.01;100.00;99371.72;5021131;28;20037;-54
2023/08/01 01:34:27;;;;;;;6.28;2.85;;;;;;;18.03;100.00;99377.63;5019667;28;20057;-52
2023/08/01 01:36:52;;;;;;;8.77;2.60;;;;;;;18.01;100.00;99370.94;5022400;28;20530;-55
2023/08/01 01:39:18;;;;;;;4.13;1.90;;;;;;;18.11;100.00;99376.31;5018713;28;20025;-55
2023/08/01 01:41:43;;;;;;;4.65;1.70;;;;;;;18.17;100.00;99375.22;5021642;28;20091;-54
2023/08/01 01:44:08;;;;;;;7.22;2.22;;;;;;;18.19;100.00;99374.97;5020597;28;20427;-52
2023/08/01 01:46:34;;;;;;;8.23;1.90;;;;;;;18.31;100.00;99364.78;5020587;28;20094;-53
2023/08/01 01:48:59;;;;;;;8.15;1.95;;;;;;;18.35;100.00;99368.53;5017653;28;20034;-59
2023/08/01 01:51:26;;;;;;;19.88;2.85;;;;;;;18.24;100.00;99370.41;5014555;28;20038;-53
2023/08/01 01:53:52;;;;;;;6.47;2.00;;;;;;;18.21;100.00;99378.19;5016568;28;20581;-54
2023/08/01 01:56:17;;;;;;;11.13;3.53;;;;;;;18.29;100.00;99375.78;5020114;28;20038;-50
2023/08/01 01:58:43;;;;;;;16.17;3.45;;;;;;;18.28;100.00;99382.22;5015856;28;20033;-53
2023/08/01 02:01:08;;;;;;;11.35;3.65;;;;;;;18.46;100.00;99378.19;5017253;28;20120;-48
2023/08/01 02:03:33;;;;;;;7.32;2.28;;;;;;;18.51;100.00;99383.56;5018923;28;20041;-52
2023/08/01 02:05:58;;;;;;;13.90;3.08;;;;;;;18.68;100.00;99377.88;5016587;28;20247;-55
2023/08/01 02:08:24;;;;;;;7.15;2.10;;;;;;;18.66;100.00;99371.97;5020285;28;20224;-54
2023/08/01 02:10:49;;;;;;;7.38;1.95;;;;;;;18.51;100.00;99377.38;5018797;28;20072;-54
2023/08/01 02:13:14;;;;;;;11.43;2.13;;;;;;;18.39;100.00;99379.53;5020688;28;20033;-52
2023/08/01 02:15:40;;;;;;;10.05;2.80;;;;;;;16.00;100.00;99412.91;5017700;28;20034;-55
2023/08/01 02:18:05;;;;;;;6.18;2.10;;;;;;;17.69;100.00;99393.38;5012834;28;20590;-55
2023/08/01 02:20:31;;;;;;;9.98;1.67;;;;;;;18.12;100.00;99385.16;5019657;28;20033;-53
2023/08/01 02:22:57;;;;;;;9.95;1.42;;;;;;;18.18;100.00;99374.16;5012929;28;20075;-54
2023/08/01 02:25:22;;;;;;;9.32;2.42;;;;;;;18.04;100.00;99378.44;5013334;28;20088;-53
2023/08/01 02:27:47;;;;;;;9.07;2.03;;;;;;;18.03;100.00;99372.28;5008092;28;20017;-51
2023/08/01 02:30:13;;;;;;;8.13;2.17;;;;;;;17.78;100.00;99381.06;5018081;28;20065;-54
2023/08/01 02:32:38;;;;;;;14.48;2.15;;;;;;;17.81;100.00;99385.09;5015588;28;20485;-58
2023/08/01 02:35:04;;;;;;;4.45;1.50;;;;;;;17.75;100.00;99384.25;5016304;28;20482;-52
2023/08/01 02:37:29;;;;;;;6.38;2.10;;;;;;;17.81;100.00;99383.25;5024355;28;20458;-50
2023/08/01 02:39:54;;;;;;;11.68;2.70;;;;;;;17.71;100.00;99374.31;5021941;28;20491;-54
2023/08/01 02:42:20;;;;;;;7.85;2.38;;;;;;;17.58;100.00;99376.47;5026711;28;20036;-63
2023/08/01 02:44:45;;;;;;;7.85;1.67;;;;;;;17.31;100.00;99381.97;5023584;28;20780;-54
2023/08/01 02:47:10;;;;;;;6.03;1.67;;;;;;;17.45;100.00;99376.97;5020497;28;20021;-54
2023/08/01 02:49:36;;;;;;;7.50;1.77;;;;;;;17.38;100.00;99381.75;5013017;28;20041;-57
2023/08/01 02:52:01;;;;;;;5.35;1.73;;;;;;;17.39;100.00;99381.47;5019627;28;20033;-53
2023/08/01 02:54:26;;;;;;;6.95;1.90;;;;;;;17.43;100.00;99379.09;5022539;28;20033;-52
2023/08/01 02:56:52;;;;;;;4.50;1.52;;;;;;;17.39;100.00;99378.00;5026127;28;20036;-57
2023/08/01 02:59:18;;;;;;;6.22;1.65;;;;;;;17.46;100.00;99378.56;5019834;28;20029;-52
2023/08/01 03:01:43;;;;;;;7.38;1.88;;;;;;;17.44;100.00;99373.47;5023201;28;20061;-57
2023/08/01 03:04:11;;;;;;;4.75;1.52;;;;;;;17.42;100.00;99380.16;5026079;28;20877;-53
2023/08/01 03:06:37;;;;;;;8.00;1.35;;;;;;;17.29;100.00;99370.72;5023829;28;20038;-54
2023/08/01 03:09:02;;;;;;;5.00;1.30;;;;;;;17.23;100.00;99377.94;5021739;28;20504;-56
2023/08/01 03:11:28;;;;;;;6.70;1.92;;;;;;;17.09;100.00;99387.53;5017909;28;20033;-50
2023/08/01 03:13:53;;;;;;;5.22;1.98;;;;;;;17.25;100.00;99382.25;5010878;28;20033;-54
2023/08/01 03:16:18;;;;;;;6.13;1.00;;;;;;;17.22;100.00;99373.66;5008231;28;20700;-54
2023/08/01 03:18:44;;;;;;;8.30;1.90;;;;;;;17.15;100.00;99383.00;5024857;28;20056;-56
2023/08/01 03:21:10;;;;;;;3.35;1.00;;;;;;;17.21;100.00;99377.38;5021160;28;20091;-54
2023/08/01 03:23:35;;;;;;;11.73;2.30;;;;;;;16.88;100.00;99383.09;5025494;28;20040;-53
2023/08/01 03:26:00;;;;;;;10.15;1.48;;;;;;;16.85;100.00;99386.31;5024821;28;20037;-55
2023/08/01 03:28:26;;;;;;;7.05;1.63;;;;;;;16.65;100.00;99385.09;5025929;28;20029;-51
2023/08/01 03:30:53;;;;;;;4.47;2.08;;;;;;;16.79;100.00;99380.94;5024385;28;20068;-54
2023/08/01 03:33:19;;;;;;;4.45;2.58;;;;;;;16.83;100.00;99377.72;5023853;28;20556;-52
2023/08/01 03:35:44;;;;;;;3.67;1.20;;;;;;;16.76;100.00;99373.38;5023509;28;20116;-53
2023/08/01 03:38:09;;;;;;;6.20;2.00;;;;;;;16.77;100.00;99377.69;5027333;28;20022;-54
2023/08/01 03:40:35;;;;;;;5.47;1.75;;;;;;;16.84;100.00;99379.34;5027925;28;20633;-52
2023/08/01 03:43:00;;;;;;;7.65;2.35;;;;;;;16.67;100.00;99369.56;5026091;28;20497;-54
2023/08/01 03:45:25;;;;;;;2.67;0.85;;;;;;;16.56;100.00;99370.56;5023757;28;20383;-53
2023/08/01 03:47:51;;;;;;;8.18;2.22;;;;;;;16.59;100.00;99375.41;5026440;28;20835;-55
2023/08/01 03:50:16;;;;;;;4.30;2.38;;;;;;;16.58;100.00;99382.63;5018544;28;20391;-53
2023/08/01 03:52:42;;;;;;;7.43;1.88;;;;;;;16.58;100.00;99379.16;5027747;28;20414;-52
2023/08/01 03:55:07;;;;;;;6.53;2.33;;;;;;;16.71;100.00;99370.69;5020851;28;20034;-51
2023/08/01 03:57:33;;;;;;;22.77;1.98;;;;;;;15.91;100.00;99364.44;5024582;28;20131;-54
2023/08/01 03:59:59;;;;;;;4.60;1.35;;;;;;;16.57;100.00;99372.19;5017515;28;21046;-53
2023/08/01 04:02:25;;;;;;;5.78;1.60;;;;;;;16.68;100.00;99384.59;5022936;28;20050;-51
2023/08/01 04:04:50;;;;;;;3.22;1.70;;;;;;;16.61;100.00;99384.00;5022817;28;20029;-52
2023/08/01 04:07:15;;;;;;;5.63;1.58;;;;;;;16.18;100.00;99380.44;5009087;28;20673;-51
2023/08/01 04:09:41;;;;;;;5.72;1.98;;;;;;;16.48;100.00;99385.22;5020456;28;20594;-53
2023/08/01 04:12:06;;;;;;;4.68;1.40;;;;;;;16.44;100.00;99373.41;5019879;28;20480;-53
2023/08/01 04:14:33;;;;;;;4.50;1.73;;;;;;;16.49;100.00;99380.69;5018852;28;20036;-56
2023/08/01 04:16:59;;;;;;;8.05;2.17;;;;;;;16.48;100.00;99381.75;5018385;28;20025;-51
2023/08/01 04:19:24;;;;;;;1.38;0.75;;;;;;;16.43;100.00;99374.50;5020391;28;20580;-55
2023/08/01 04:21:50;;;;;;;3.75;0.70;;;;;;;16.36;100.00;99382.72;5020022;28;20034;-54
2023/08/01 04:24:15;;;;;;;6.78;0.57;;;;;;;16.10;100.00;99384.38;5015870;28;20056;-55
2023/08/01 04:26:41;;;;;;;4.88;1.67;;;;;;;16.20;100.00;99382.88;5016541;28;20115;-54
2023/08/01 04:29:06;;;;;;;12.20;1.05;;;;;;;16.11;100.00;99385.22;5018488;28;20430;-54
2023/08/01 04:31:32;;;;;;;10.50;1.45;;;;;;;16.03;100.00;99377.63;5024184;28;20033;-54
2023/08/01 04:33:57;;;;;;;3.58;1.67;;;;;;;16.23;100.00;99383.16;5022630;28;20033;-64
2023/08/01 04:36:22;;;;;;;10.05;1.10;;;;;;;16.36;100.00;99376.56;5017414;28;20398;-50
2023/08/01 04:38:48;;;;;;;8.07;0.70;;;;;;;16.50;100.00;99382.31;5020306;28;20167;-55
2023/08/01 04:41:13;;;;;;;4.20;0.90;;;;;;;16.57;100.00;99380.19;5023420;28;20029;-54
2023/08/01 04:43:38;;;;;;;5.03;1.38;;;;;;;16.71;100.00;99389.41;5025460;28;20120;-53
2023/08/01 04:46:04;;;;;;;6.68;1.90;;;;;;;16.72;100.00;99388.34;5027210;28;20098;-55
2023/08/01 04:48:29;;;;;;;5.05;1.00;;;;;;;16.83;100.00;99397.28;5023220;28;20465;-53
2023/08/01 04:50:54;;;;;;;3.15;0.93;;;;;;;16.76;100.00;99389.44;5022313;28;20037;-53
2023/08/01 04:53:19;;;;;;;5.82;0.73;;;;;;;16.87;100.00;99394.91;5020421;28;20108;-52
2023/08/01 04:55:45;;;;;;;6.57;1.33;;;;;;;16.68;100.00;99397.16;5017267;28;20033;-55
2023/08/01 04:58:10;;;;;;;13.27;1.40;;;;;;;16.86;100.00;99394.09;5018535;28;20503;-55
2023/08/01 05:00:37;;;;;;;5.70;1.52;;;;;;;16.97;100.00;99386.91;5020236;28;20041;-50
2023/08/01 05:03:02;;;;;;;3.15;0.75;;;;;;;16.89;100.00;99390.09;5015150;28;20050;-65
2023/08/01 05:05:27;;;;;;;2.58;0.45;;;;;;;17.04;100.00;99389.34;5020241;28;20087;-64
2023/08/01 05:07:53;;;;;;;9.75;0.85;;;;;;;17.10;100.00;99388.34;5016504;28;20037;-61
2023/08/01 05:10:18;;;;;;;3.50;0.60;;;;;;;17.11;100.00;99401.44;5013965;28;20030;-53
2023/08/01 05:12:43;;;;;;;3.40;0.50;;;;;;;17.11;100.00;99397.97;5023743;28;20885;-56
2023/08/01 05:15:09;;;;;;;2.97;0.30;;;;;;;17.25;100.00;99401.78;5021253;28;20057;-59
2023/08/01 05:17:34;;;;;;;2.20;0.63;;;;;;;17.35;100.00;99398.38;5023220;28;20080;-54
2023/08/01 05:19:59;;;;;;;6.35;0.45;;;;;;;17.21;100.00;99400.69;5022176;28;20112;-54
2023/08/01 05:22:25;;;;;;;2.17;0.63;;;;;;;17.12;100.00;99394.25;5022647;28;20087;-56
2023/08/01 05:24:50;;;;;;;1.10;0.60;;;;;;;17.12;100.00;99410.31;5013897;28;20053;-57
2023/08/01 05:27:15;;;;;;;8.10;1.10;;;;;;;17.01;100.00;99422.81;5020458;28;20120;-56
2023/08/01 05:29:41;;;;;;;5.00;0.73;;;;;;;17.00;100.00;99408.63;5021819;28;20489;-55
2023/08/01 05:32:06;;;;;;;6.50;0.43;;;;;;;17.02;100.00;99411.03;5022184;28;20080;-51
2023/08/01 05:34:32;;;;;;;3.58;0.40;;;;;;;16.99;100.00;99408.91;5022371;28;20037;-53
2023/08/01 05:36:57;;;;;;;6.97;1.33;;;;;;;16.98;100.00;99416.09;5022856;28;20486;-48
2023/08/01 05:39:23;;;;;;;6.22;0.57;;;;;;;16.90;100.00;99413.91;5016537;28;20464;-53
2023/08/01 05:41:50;;;;;;;3.53;0.98;;;;;;;16.97;100.00;99413.69;5018610;28;20033;-56
2023/08/01 05:44:15;;;;;;;2.45;0.35;;;;;;;16.99;100.00;99408.91;5014056;28;20034;-54
2023/08/01 05:46:40;;;;;;;2.13;0.38;;;;;;;17.06;100.00;99416.69;5015202;28;20104;-53
2023/08/01 05:49:06;;;;;;;5.05;0.65;;;;;;;16.94;100.00;99412.34;5016107;28;20482;-54
2023/08/01 05:51:31;;;;;;;2.05;0.38;;;;;;;16.91;100.00;99414.72;5012339;28;20123;-53
2023/08/01 05:53:56;;;;;;;3.22;0.22;;;;;;;17.08;100.00;99407.31;5019125;28;20052;-54
2023/08/01 05:56:22;;;;;;;3.85;1.42;;;;;;;16.95;100.00;99421.19;5022760;28;20040;-52
2023/08/01 05:58:47;;;;;;;1.48;0.65;;;;;;;17.18;100.00;99417.28;5018002;28;20082;-57
2023/08/01 06:01:12;;;;;;;4.65;0.30;;;;;;;17.18;100.00;99423.44;5010536;28;20077;-54
2023/08/01 06:03:38;;;;;;;4.68;0.25;;;;;;;17.32;100.00;99420.28;5019388;28;20029;-52
2023/08/01 06:06:04;;;;;;;4.45;0.88;;;;;;;17.43;100.00;99419.28;5015099;28;20029;-54
2023/08/01 06:08:30;;;;;;;6.57;1.65;;;;;;;17.54;100.00;99423.59;5015769;28;20033;-53
2023/08/01 06:10:55;;;;;;;3.17;0.52;;;;;;;17.73;100.00;99421.25;5010153;28;20355;-51
2023/08/01 06:13:20;;;;;;;2.88;0.30;;;;;;;17.95;100.00;99422.97;5021403;28;20487;-55
2023/08/01 06:15:46;;;;;;;6.03;1.05;;;;;;;18.01;100.00;99419.22;5019403;28;21102;-53
2023/08/01 06:18:12;;;;;;;2.15;0.22;;;;;;;18.17;100.00;99428.06;5018819;28;20029;-51
2023/08/01 06:20:37;;;;;;;1.70;0.28;;;;;;;18.37;100.00;99420.03;5017920;28;20442;-52
2023/08/01 06:23:03;;;;;;;8.95;1.08;;;;;;;18.54;100.00;99425.16;5018733;28;20075;-56
2023/08/01 06:25:28;;;;;;;5.20;0.90;;;;;;;18.60;100.00;99412.53;5013898;28;20479;-54
2023/08/01 06:27:53;;;;;;;3.72;0.40;;;;;;;18.44;100.00;99423.28;5006337;28;20046;-56
2023/08/01 06:30:19;;;;;;;2.20;0.40;;;;;;;18.46;100.00;99418.44;5018214;28;20018;-52
2023/08/01 06:32:44;;;;;;;2.40;0.80;;;;;;;18.54;100.00;99425.16;5013007;28;20033;-63
2023/08/01 06:35:09;;;;;;;12.52;0.50;;;;;;;18.35;100.00;99427.56;5002092;28;20065;-50
2023/08/01 06:37:35;;;;;;;1.98;0.10;;;;;;;18.43;100.00;99421.69;5012268;28;20149;-57
2023/08/01 06:40:01;;;;;;;5.30;1.23;;;;;;;18.35;100.00;99426.75;5014088;28;20131;-54
2023/08/01 06:42:26;;;;;;;6.78;0.57;;;;;;;18.39;100.00;99434.00;5008885;28;20056;-58
2023/08/01 06:44:52;;;;;;;0.93;0.40;;;;;;;18.36;100.00;99434.53;5005855;28;20215;-57
2023/08/01 06:47:17;;;;;;;5.68;0.57;;;;;;;18.44;100.00;99436.69;4997393;28;20029;-52
2023/08/01 06:49:43;;;;;;;3.03;0.50;;;;;;;18.43;100.00;99435.09;5002697;28;20099;-57
2023/08/01 06:52:09;;;;;;;5.53;0.43;;;;;;;18.43;100.00;99435.09;5009869;28;21021;-51
2023/08/01 06:54:34;;;;;;;0.85;0.20;;;;;;;18.36;100.00;99439.13;5015865;28;20029;-56
2023/08/01 06:57:00;;;;;;;3.40;0.80;;;;;;;18.41;100.00;99434.56;5018841;28;20363;-53
2023/08/01 06:59:25;;;;;;;2.90;0.60;;;;;;;18.51;100.00;99442.59;5015053;28;20076;-54
2023/08/01 07:01:51;;;;;;;3.92;0.63;;;;;;;18.46;100.00;99433.75;5016882;28;20468;-57
2023/08/01 07:04:16;;;;;;;6.78;1.25;;;;;;;18.40;100.00;99434.81;5021827;28;20064;-52
2023/08/01 07:06:42;;;;;;;3.67;0.40;;;;;;;18.40;100.00;99424.88;5017922;28;20022;-54
2023/08/01 07:09:07;;;;;;;2.20;0.52;;;;;;;18.33;100.00;99445.81;5021072;28;20087;-52
2023/08/01 07:11:32;;;;;;;0.98;0.10;;;;;;;18.48;100.00;99437.78;5021036;28;20087;-53
2023/08/01 07:13:58;;;;;;;2.05;0.98;;;;;;;18.66;100.00;99435.59;5017593;28;20038;-55
2023/08/01 07:16:23;;;;;;;4.70;1.17;;;;;;;18.74;100.00;99425.16;5017797;28;20069;-61
2023/08/01 07:18:50;;;;;;;5.65;0.68;;;;;;;18.86;100.00;99432.94;5033062;28;20056;-54
2023/08/01 07:21:15;;;;;;;3.40;0.30;;;;;;;19.07;100.00;99430.22;5018558;28;20029;-56
2023/08/01 07:23:40;;;;;;;0.90;0.30;;;;;;;19.32;100.00;99437.41;5024442;28;20064;-54
2023/08/01 07:26:06;;;;;;;4.68;0.63;;;;;;;19.25;100.00;99423.44;5014313;28;20041;-54
2023/08/01 07:28:31;;;;;;;3.28;0.55;;;;;;;19.26;100.00;99435.78;5016163;28;20068;-56
2023/08/01 07:31:01;;;;;;;4.53;0.43;;;;;;;19.19;100.00;99436.09;5014398;28;20080;-51
2023/08/01 07:33:27;;;;;;;1.10;0.55;;;;;;;19.02;100.00;99425.66;5015621;28;20557;-50
2023/08/01 07:35:52;;;;;;;5.00;0.45;;;;;;;19.01;100.00;99436.69;5015632;28;20060;-52
2023/08/01 07:38:18;;;;;;;6.85;1.10;;;;;;;19.32;100.00;99430.13;5010255;28;20026;-49
2023/08/01 07:40:43;;;;;;;2.53;0.35;;;;;;;19.56;100.00;99434.88;5016036;28;20436;-48
2023/08/01 07:43:08;;;;;;;1.27;0.10;;;;;;;19.37;100.00;99442.75;5014895;28;20073;-53
2023/08/01 07:45:37;;;;;;;0.77;0.10;;;;;;;19.43;100.00;99430.91;5016263;28;20030;-50
2023/08/01 07:48:03;;;;;;;4.68;0.80;;;;;;;19.44;100.00;99434.38;5016215;28;20116;-48
2023/08/01 07:50:28;;;;;;;1.65;0.08;;;;;;;19.56;100.00;99424.13;5006007;28;20548;-52
2023/08/01 07:52:53;;;;;;;3.88;0.30;;;;;;;19.68;100.00;99432.72;5007398;28;20041;-49
2023/08/01 07:55:20;;;;;;;2.60;0.10;;;;;;;19.85;100.00;99435.03;5011437;28;20037;-50
2023/08/01 07:57:46;;;;;;;3.53;0.55;;;;;;;19.96;100.00;99439.28;5017351;28;20025;-49
2023/08/01 08:00:11;;;;;;;3.83;0.77;;;;;;;19.98;100.00;99436.28;5012317;28;20443;-60
2023/08/01 08:02:37;;;;;;;2.58;0.55;;;;;;;20.05;100.00;99439.50;5013285;28;20084;-50
2023/08/01 08:05:02;;;;;;;11.45;0.45;;;;;;;20.18;100.00;99440.75;5008750;28;20037;-51
2023/08/01 08:07:27;;;;;;;0.63;0.20;;;;;;;20.39;100.00;99441.41;5012932;28;20033;-51
2023/08/01 08:09:54;;;;;;;2.30;0.30;;;;;;;20.48;100.00;99440.53;5010895;28;20156;-51
2023/08/01 08:12:20;;;;;;;1.95;0.40;;;;;;;20.42;100.00;99455.13;5017019;28;20744;-51
2023/08/01 08:14:46;;;;;;;2.20;0.73;;;;;;;20.08;100.00;99467.72;5010077;28;20040;-52
2023/08/01 08:17:11;;;;;;;2.20;0.43;;;;;;;20.03;100.00;99453.25;5012977;28;20033;-51
2023/08/01 08:19:37;;;;;;;2.55;0.57;;;;;;;20.17;100.00;99452.63;5006400;28;20032;-50
2023/08/01 08:22:03;;;;;;;4.28;0.77;;;;;;;20.46;100.00;99452.66;5012152;28;20493;-53
2023/08/01 08:24:28;;;;;;;6.63;0.93;;;;;;;20.74;100.00;99456.50;5014044;28;20296;-56
2023/08/01 08:26:54;;;;;;;1.65;0.68;;;;;;;20.79;100.00;99455.66;5020676;28;20078;-50
2023/08/01 08:29:20;;;;;;;3.38;0.70;;;;;;;20.65;100.00;99459.00;5014756;28;20037;-62
2023/08/01 08:31:45;;;;;;;1.08;0.52;;;;;;;20.57;100.00;99456.91;5016546;28;20041;-51
2023/08/01 08:34:11;;;;;;;0.20;0.20;;;;;;;20.66;100.00;99457.91;5014064;28;20226;-51
2023/08/01 08:36:36;;;;;;;4.53;1.00;;;;;;;20.54;100.00;99456.63;5017863;28;20062;-50
2023/08/01 08:39:03;;;;;;;1.45;0.40;;;;;;;20.40;100.00;99451.09;5015794;28;20021;-56
2023/08/01 08:41:33;;;;;;;0.82;0.20;;;;;;;20.42;100.00;99454.28;5010435;28;20029;-52
2023/08/01 08:44:01;;;;;;;2.15;0.10;;;;;;;20.36;100.00;99442.78;5013222;28;20094;-52
2023/08/01 08:46:29;;;;;;;2.22;0.20;;;;;;;20.51;100.00;99444.53;5008122;28;20034;-64
2023/08/01 08:48:57;;;;;;;2.75;0.20;;;;;;;20.52;100.00;99453.41;5021238;28;20044;-53
2023/08/01 08:51:26;;;;;;;4.75;0.40;;;;;;;20.45;100.00;99459.16;5011664;28;20037;-54
2023/08/01 08:53:54;;;;;;;2.20;0.10;;;;;;;20.74;100.00;99451.13;5007958;28;20034;-48
2023/08/01 08:56:20;;;;;;;2.10;0.30;;;;;;;20.77;100.00;99452.44;5014136;28;20387;-52
2023/08/01 08:58:47;;;;;;;1.17;0.10;;;;;;;21.08;100.00;99448.34;5012252;28;20512;-53
2023/08/01 09:01:12;;;;;;;0.73;0.10;;;;;;;21.78;100.00;99441.63;5009516;28;20049;-51
2023/08/01 09:03:38;;;;;;;5.53;0.22;;;;;;;21.98;100.00;99454.84;5017157;28;20048;-50
2023/08/01 09:06:16;;;;;;;1.05;0.28;;;;;;;21.48;100.00;99461.72;5016302;28;20072;-53
2023/08/01 09:08:50;;;;;;;1.05;0.10;;;;;;;21.46;100.00;99458.50;5016497;28;20029;-51
2023/08/01 09:11:16;;;;;;;3.20;0.32;;;;;;;21.40;100.00;99459.63;5013596;28;20045;-56
2023/08/01 09:13:41;;;;;;;5.65;0.25;;;;;;;21.40;100.00;99465.03;5013294;28;20029;-52
2023/08/01 09:16:08;;;;;;;0.98;0.20;;;;;;;21.20;100.00;99466.03;5018175;28;20390;-52
2023/08/01 09:18:33;;;;;;;3.35;0.17;;;;;;;21.07;100.00;99452.16;5012776;28;20064;-54
2023/08/01 09:21:02;;;;;;;0.63;0.03;;;;;;;21.48;100.00;99450.94;5017753;28;20145;-65
2023/08/01 09:23:27;;;;;;;1.50;0.22;;;;;;;21.56;100.00;99459.19;5008935;28;20254;-54
2023/08/01 09:25:53;;;;;;;1.60;0.20;;;;;;;21.69;100.00;99473.84;5013374;28;20041;-50
2023/08/01 09:28:20;;;;;;;2.60;0.10;;;;;;;21.97;100.00;99458.66;5011806;28;20056;-51
2023/08/01 09:30:55;;;;;;;1.95;0.10;;;;;;;21.96;100.00;99456.22;5014081;28;20519;-54
2023/08/01 09:33:21;;;;;;;1.15;0.10;;;;;;;21.95;100.00;99466.22;5001339;28;20487;-54
2023/08/01 09:35:49;;;;;;;0.93;0.22;;;;;;;21.39;100.00;99472.31;5012506;28;20156;-53
2023/08/01 09:38:15;;;;;;;1.15;0.32;;;;;;;21.35;100.00;99473.97;5014379;28;20029;-55
2023/08/01 09:40:42;;;;;;;0.28;0.20;;;;;;;21.47;100.00;99466.28;5012876;28;20028;-51
2023/08/01 09:43:08;;;;;;;0.98;0.03;;;;;;;21.19;100.00;99481.38;5011992;28;20498;-52
2023/08/01 09:45:34;;;;;;;1.20;0.10;;;;;;;21.08;100.00;99475.31;5015831;28;21246;-50
2023/08/01 09:48:00;;;;;;;0.95;0.20;;;;;;;21.28;100.00;99478.88;5013962;28;20025;-50
2023/08/01 09:50:26;;;;;;;4.70;0.10;;;;;;;21.28;100.00;99473.50;5013864;28;20040;-52
2023/08/01 09:52:54;;;;;;;0.35;0.00;;;;;;;21.34;100.00;99477.72;5014230;28;20032;-49
2023/08/01 09:55:31;;;;;;;2.28;0.10;;;;;;;21.27;100.00;99479.97;5011152;28;20033;-54
2023/08/01 09:57:58;;;;;;;0.75;0.00;;;;;;;21.34;100.00;99489.31;5017351;28;20033;-52
2023/08/01 10:00:28;;;;;;;2.85;0.20;;;;;;;21.36;100.00;99489.03;5013342;28;20060;-47
2023/08/01 10:03:01;;;;;;;1.30;0.20;;;;;;;21.28;100.00;99495.84;5013564;28;20041;-46
2023/08/01 10:05:30;;;;;;;1.02;0.00;;;;;;;21.10;100.00;99499.28;5011301;28;20033;-53
2023/08/01 10:07:58;;;;;;;2.58;0.10;;;;;;;21.08;100.00;99487.97;5017579;28;20025;-50
2023/08/01 10:10:25;;;;;;;0.85;0.10;;;;;;;20.86;100.00;99485.78;5010776;28;20025;-49
2023/08/01 10:12:51;;;;;;;3.58;0.10;;;;;;;20.73;100.00;99489.91;5014320;28;20108;-48
2023/08/01 10:15:16;;;;;;;0.50;0.50;;;;;;;21.17;100.00;99477.38;5014795;28;20041;-52
2023/08/01 10:17:42;;;;;;;0.50;0.00;;;;;;;21.74;100.00;99470.28;5018767;28;20257;-56
2023/08/01 10:20:08;;;;;;;0.65;0.38;;;;;;;22.17;100.00;99470.22;5012345;28;20080;-49
2023/08/01 10:22:35;;;;;;;0.10;0.00;;;;;;;22.10;100.00;99465.22;5013600;28;20091;-50
2023/08/01 10:25:01;;;;;;;1.15;0.55;;;;;;;22.38;100.00;99460.78;5013573;28;20053;-49
2023/08/01 10:27:26;;;;;;;1.60;0.30;;;;;;;22.41;100.00;99472.91;5017214;28;20282;-45
2023/08/01 10:29:59;;;;;;;4.53;0.05;;;;;;;22.09;100.00;99468.19;5012217;28;20025;-49
2023/08/01 10:32:33;;;;;;;0.93;0.15;;;;;;;21.93;100.00;99473.00;5011735;28;20033;-53
2023/08/01 10:34:58;;;;;;;1.08;0.03;;;;;;;22.09;100.00;99471.69;5011656;28;20029;-52
2023/08/01 10:37:24;;;;;;;1.45;0.98;;;;;;;22.31;100.00;99468.44;5014675;28;20032;-54
2023/08/01 10:39:59;;;;;;;3.65;0.30;;;;;;;23.07;100.00;99473.69;5014590;28;20100;-51
2023/08/01 10:42:25;;;;;;;4.03;0.08;;;;;;;23.58;100.00;99461.88;5016309;28;20083;-62
2023/08/01 10:44:50;;;;;;;1.50;0.00;;;;;;;23.58;99.94;99472.72;5013390;28;20120;-53
2023/08/01 10:47:26;;;;;;;0.50;0.00;;;;;;;23.41;95.04;99476.00;5009352;28;20040;-55
2023/08/01 10:49:52;;;;;;;2.38;0.03;;;;;;;23.12;96.66;99464.69;5008069;28;20041;-52
2023/08/01 10:52:23;;;;;;;2.15;0.10;;;;;;;23.15;96.13;99473.00;5014229;28;20041;-49
2023/08/01 10:54:56;;;;;;;1.17;0.13;;;;;;;23.14;94.88;99467.91;5014759;28;20582;-52
2023/08/01 10:57:23;;;;;;;1.83;0.10;;;;;;;23.18;95.20;99475.13;5018407;28;20588;-50
2023/08/01 10:59:48;;;;;;;2.10;0.00;;;;;;;23.00;95.93;99478.69;5011253;28;20065;-52
2023/08/01 11:02:21;;;;;;;2.90;0.20;;;;;;;22.90;95.77;99485.06;5014239;28;20133;-53
2023/08/01 11:05:04;;;;;;;0.85;0.10;;;;;;;22.99;94.98;99474.38;5012835;28;20238;-48
2023/08/01 11:07:30;;;;;;;1.45;0.00;;;;;;;22.85;94.21;99477.84;5015342;28;20044;-50
2023/08/01 11:10:13;;;;;;;0.32;0.00;;;;;;;22.90;96.89;99479.66;5015209;28;20033;-52
2023/08/01 11:12:43;;;;;;;2.10;0.00;;;;;;;23.02;95.00;99484.59;5014844;28;20482;-49
2023/08/01 11:15:11;;;;;;;1.02;0.10;;;;;;;22.66;95.26;99485.16;5013930;28;20049;-52
2023/08/01 11:17:37;;;;;;;0.00;0.00;;;;;;;22.48;95.79;99488.69;5018072;28;20042;-50
2023/08/01 11:20:05;;;;;;;1.17;0.10;;;;;;;22.45;97.00;99492.00;5015210;28;20467;-54